Time;durP1;ratioP1;P1;durP2;ratioP2;P2;SDS_P1;SDS_P2;PMS_P1;PMS_P2;Temp;Humidity;BMP_temperature;BMP_pressure;BME280_temperature;BME280_humidity;BME280_pressure;Samples;Min_cycle;Max_cycle;Signal;HPM_P1;HPM_P2
2023/02/12 00:01:15;;;;;;;63.75;35.45;;;;;;;-5.10;99.09;94085.41;5111587;28;20092;-67
2023/02/12 00:03:42;;;;;;;56.10;32.10;;;;;;;-5.43;99.82;94035.63;5111702;28;20036;-67
2023/02/12 00:06:10;;;;;;;40.92;24.77;;;;;;;-5.17;99.66;94076.66;5111447;28;20175;-67
2023/02/12 00:08:39;;;;;;;41.08;23.70;;;;;;;-5.25;99.37;94078.81;5111806;28;20124;-67
2023/02/12 00:11:11;;;;;;;35.95;22.40;;;;;;;-5.25;100.00;94078.81;5111485;28;20043;-67
2023/02/12 00:13:37;;;;;;;36.47;21.05;;;;;;;-5.34;98.61;94067.63;5111446;28;20077;-67
2023/02/12 00:16:06;;;;;;;39.05;24.13;;;;;;;-5.57;99.99;94067.31;5111534;28;20104;-67
2023/02/12 00:18:33;;;;;;;50.10;28.52;;;;;;;-5.46;100.00;94073.38;5111279;28;20048;-67
2023/02/12 00:21:00;;;;;;;50.08;28.95;;;;;;;-5.58;100.00;94069.88;5111510;28;20039;-67
2023/02/12 00:23:27;;;;;;;60.53;32.38;;;;;;;-5.52;100.00;94080.34;5111348;28;20416;-67
2023/02/12 00:25:55;;;;;;;66.07;34.03;;;;;;;-5.53;100.00;94070.44;5111045;28;20085;-67
2023/02/12 00:28:22;;;;;;;61.53;34.33;;;;;;;-5.48;100.00;94067.66;5111029;27;20040;-67
2023/02/12 00:30:49;;;;;;;58.15;32.83;;;;;;;-5.44;100.00;94062.38;5111150;28;20092;-67
2023/02/12 00:33:16;;;;;;;76.97;44.50;;;;;;;-5.46;100.00;94066.66;5111311;28;20117;-67
2023/02/12 00:35:42;;;;;;;55.58;32.13;;;;;;;-5.44;100.00;94067.38;5110943;28;20487;-67
2023/02/12 00:38:09;;;;;;;73.18;40.92;;;;;;;-5.45;100.00;94060.78;5111027;28;20067;-67
2023/02/12 00:40:36;;;;;;;59.38;33.50;;;;;;;-5.58;100.00;94065.69;5110805;28;20036;-67
2023/02/12 00:43:04;;;;;;;58.90;30.42;;;;;;;-5.58;100.00;94058.19;5110846;28;20047;-68
2023/02/12 00:45:31;;;;;;;55.22;28.10;;;;;;;-5.82;100.00;94045.41;5109967;28;20495;-68
2023/02/12 00:47:58;;;;;;;51.25;28.73;;;;;;;-5.84;100.00;94044.72;5110982;28;20043;-68
2023/02/12 00:50:24;;;;;;;52.22;29.33;;;;;;;-5.77;100.00;94038.44;5110674;28;20039;-68
2023/02/12 00:52:51;;;;;;;50.05;29.77;;;;;;;-5.69;100.00;94038.78;5110849;28;20461;-68
2023/02/12 00:55:18;;;;;;;59.33;30.67;;;;;;;-5.63;100.00;94040.94;5110899;28;20108;-68
2023/02/12 00:57:45;;;;;;;58.67;33.33;;;;;;;-5.63;100.00;94043.44;5110577;28;20126;-68
2023/02/12 01:00:15;;;;;;;49.03;27.55;;;;;;;-5.61;100.00;94035.81;5110459;28;20106;-68
2023/02/12 01:02:41;;;;;;;54.80;36.05;;;;;;;-5.56;100.00;94035.56;5107646;28;20039;-67
2023/02/12 01:05:09;;;;;;;43.78;24.05;;;;;;;-5.55;100.00;94035.47;5110273;28;20051;-67
2023/02/12 01:07:37;;;;;;;43.08;24.48;;;;;;;-5.60;100.00;94029.91;5110301;28;20512;-67
2023/02/12 01:10:05;;;;;;;35.13;20.73;;;;;;;-5.56;100.00;94031.34;5110534;28;20058;-67
2023/02/12 01:12:31;;;;;;;39.63;22.13;;;;;;;-5.57;100.00;94041.44;5110265;27;20089;-67
2023/02/12 01:14:58;;;;;;;38.95;21.58;;;;;;;-5.66;100.00;94028.59;5110612;28;20051;-67
2023/02/12 01:17:26;;;;;;;34.10;21.65;;;;;;;-5.70;100.00;94016.38;5110161;27;20100;-67
2023/02/12 01:19:57;;;;;;;38.90;21.45;;;;;;;-5.77;100.00;94006.72;5110530;28;20040;-67
2023/02/12 01:22:24;;;;;;;47.10;26.80;;;;;;;-5.63;100.00;94022.63;5110174;28;20491;-67
2023/02/12 01:24:51;;;;;;;45.05;24.00;;;;;;;-5.55;100.00;94032.97;5110201;28;20079;-67
2023/02/12 01:27:17;;;;;;;42.38;23.88;;;;;;;-5.55;100.00;94020.44;5110041;28;20052;-67
2023/02/12 01:29:44;;;;;;;48.10;26.85;;;;;;;-5.60;100.00;94027.41;5110237;28;20147;-67
2023/02/12 01:32:11;;;;;;;43.88;24.55;;;;;;;-5.90;100.00;94025.84;5110097;28;20055;-67
2023/02/12 01:34:39;;;;;;;45.67;24.52;;;;;;;-5.92;100.00;94017.63;5110130;28;20089;-67
2023/02/12 01:37:06;;;;;;;44.85;25.77;;;;;;;-6.04;100.00;94022.47;5110081;28;20043;-67
2023/02/12 01:39:34;;;;;;;49.20;28.45;;;;;;;-5.92;100.00;94018.41;5110043;28;20075;-67
2023/02/12 01:42:01;;;;;;;44.63;24.98;;;;;;;-5.78;100.00;94025.13;5109725;28;20123;-67
2023/02/12 01:44:30;;;;;;;46.38;28.35;;;;;;;-5.84;100.00;94025.47;5109848;28;20047;-67
2023/02/12 01:46:59;;;;;;;56.42;32.95;;;;;;;-5.98;100.00;94028.78;5110066;28;20051;-67
2023/02/12 01:49:31;;;;;;;64.65;36.78;;;;;;;-5.97;100.00;94020.38;5105063;28;20044;-67
2023/02/12 01:52:03;;;;;;;68.95;40.72;;;;;;;-5.98;100.00;94017.97;5109714;28;20043;-67
2023/02/12 01:54:31;;;;;;;62.28;37.33;;;;;;;-6.02;100.00;94007.31;5109635;28;20043;-67
2023/02/12 01:57:00;;;;;;;50.08;31.55;;;;;;;-5.94;100.00;93997.69;5108459;28;20043;-67
2023/02/12 01:59:27;;;;;;;57.53;35.65;;;;;;;-5.79;100.00;94012.72;5109250;28;20040;-67
2023/02/12 02:01:55;;;;;;;71.03;40.22;;;;;;;-5.77;100.00;94009.22;5109534;28;20089;-68
2023/02/12 02:04:25;;;;;;;76.10;46.03;;;;;;;-5.78;100.00;93985.06;5109505;28;20035;-68
2023/02/12 02:06:57;;;;;;;56.88;33.50;;;;;;;-5.86;100.00;94007.25;5109519;28;20043;-68
2023/02/12 02:09:27;;;;;;;56.20;33.58;;;;;;;-5.73;100.00;94012.34;5109360;28;20035;-68
2023/02/12 02:14:40;;;;;;;52.25;31.83;;;;;;;-5.70;100.00;94002.13;5109168;28;20055;-68
2023/02/12 02:17:20;;;;;;;58.00;33.58;;;;;;;-5.69;100.00;94002.94;5109023;28;20085;-68
2023/02/12 02:20:23;;;;;;;53.05;32.05;;;;;;;-5.59;100.00;94000.69;5109018;28;20487;-68
2023/02/12 02:23:01;;;;;;;58.05;33.53;;;;;;;-5.52;100.00;93992.72;5109165;28;20065;-68
2023/02/12 02:26:11;;;;;;;49.38;30.48;;;;;;;-5.51;100.00;93993.56;5109148;28;20096;-68
2023/02/12 02:28:58;;;;;;;54.22;31.40;;;;;;;-5.65;100.00;93975.13;5059138;28;20496;-68
2023/02/12 02:31:31;;;;;;;61.95;35.80;;;;;;;-5.44;100.00;93993.97;5109245;28;20509;-68
2023/02/12 02:34:17;;;;;;;66.75;36.03;;;;;;;-5.45;100.00;93999.88;5109004;28;20573;-70
2023/02/12 02:36:48;;;;;;;60.10;33.40;;;;;;;-5.46;100.00;94008.28;5109567;28;20039;-69
2023/02/12 02:39:20;;;;;;;51.20;30.73;;;;;;;-5.43;100.00;94003.06;5109113;28;20048;-69
2023/02/12 02:41:55;;;;;;;46.20;26.65;;;;;;;-5.47;100.00;93999.16;5108728;28;20043;-69
2023/02/12 02:44:27;;;;;;;37.13;21.67;;;;;;;-5.38;100.00;94003.59;5109136;28;20044;-70
2023/02/12 02:46:57;;;;;;;31.67;20.45;;;;;;;-5.33;100.00;93998.34;5109123;28;20043;-69
2023/02/12 02:49:27;;;;;;;31.85;18.08;;;;;;;-5.29;100.00;93997.22;5109136;28;20055;-69
2023/02/12 02:52:00;;;;;;;33.50;20.02;;;;;;;-5.26;100.00;94002.06;5108790;28;20093;-69
2023/02/12 02:54:33;;;;;;;38.17;20.55;;;;;;;-5.19;100.00;94007.50;5108655;28;20039;-69
2023/02/12 02:57:05;;;;;;;39.20;21.38;;;;;;;-5.20;100.00;94004.19;5109075;28;20100;-67
2023/02/12 02:59:36;;;;;;;40.95;22.38;;;;;;;-5.16;100.00;94014.81;5108784;28;20047;-68
2023/02/12 03:02:09;;;;;;;37.33;21.52;;;;;;;-5.08;100.00;94004.34;5109031;28;20167;-70
2023/02/12 03:04:41;;;;;;;41.38;26.67;;;;;;;-5.06;100.00;94007.56;5108981;28;20403;-68
2023/02/12 03:07:15;;;;;;;39.35;23.23;;;;;;;-5.09;100.00;94006.06;5109165;28;20492;-69
2023/02/12 03:09:46;;;;;;;44.47;24.73;;;;;;;-5.08;100.00;93997.63;5112975;28;20082;-69
2023/02/12 03:12:19;;;;;;;40.83;23.13;;;;;;;-5.07;100.00;93995.91;5112664;28;20043;-69
2023/02/12 03:14:53;;;;;;;41.60;24.60;;;;;;;-5.01;100.00;94003.06;5112630;28;20055;-69
2023/02/12 03:17:25;;;;;;;41.10;23.35;;;;;;;-5.02;100.00;93999.75;5112488;28;20432;-69
2023/02/12 03:19:57;;;;;;;40.75;24.27;;;;;;;-4.98;100.00;93985.34;5112564;28;20046;-69
2023/02/12 03:22:28;;;;;;;41.80;22.67;;;;;;;-4.94;100.00;93985.94;5112928;28;20085;-69
2023/02/12 03:25:00;;;;;;;47.30;25.55;;;;;;;-4.87;100.00;93982.13;5112622;28;20055;-67
2023/02/12 03:27:31;;;;;;;51.47;29.50;;;;;;;-4.85;100.00;93978.63;5112502;28;20035;-68
2023/02/12 03:29:58;;;;;;;55.95;29.85;;;;;;;-4.75;100.00;93986.41;5112541;28;20056;-69
2023/02/12 03:32:33;;;;;;;48.20;26.10;;;;;;;-4.80;100.00;93980.88;5112366;28;20567;-68
2023/02/12 03:35:08;;;;;;;78.13;36.50;;;;;;;-4.75;100.00;93983.91;5112206;28;20044;-69
2023/02/12 03:37:40;;;;;;;60.72;33.08;;;;;;;-4.77;100.00;93967.34;5112479;28;20043;-69
2023/02/12 03:40:15;;;;;;;59.17;30.55;;;;;;;-4.64;100.00;93979.91;5112038;28;20051;-67
2023/02/12 03:42:48;;;;;;;57.23;29.57;;;;;;;-4.65;100.00;93981.59;5111854;28;20044;-68
2023/02/12 03:45:27;;;;;;;56.00;30.35;;;;;;;-4.74;100.00;93979.66;5112270;28;20043;-70
2023/02/12 03:48:02;;;;;;;56.55;28.92;;;;;;;-4.70;100.00;93981.91;5112035;28;20062;-69
2023/02/12 03:50:35;;;;;;;58.72;31.02;;;;;;;-4.61;100.00;93980.50;5111801;28;20043;-69
2023/02/12 03:53:02;;;;;;;54.05;28.17;;;;;;;-4.57;100.00;93971.09;5112035;28;20048;-67
2023/02/12 03:55:32;;;;;;;81.03;40.85;;;;;;;-4.58;100.00;93975.28;5111587;28;20039;-68
2023/02/12 03:58:03;;;;;;;77.70;38.60;;;;;;;-4.51;100.00;93974.88;5111754;28;20039;-68
2023/02/12 04:00:30;;;;;;;65.70;33.95;;;;;;;-4.52;100.00;93971.59;5112012;28;20089;-68
2023/02/12 04:02:58;;;;;;;66.82;35.22;;;;;;;-4.46;100.00;93972.88;5112145;28;20104;-69
2023/02/12 04:05:27;;;;;;;62.28;35.00;;;;;;;-4.42;100.00;93969.28;5111817;28;20047;-69
2023/02/12 04:07:56;;;;;;;55.95;29.88;;;;;;;-4.36;100.00;93976.41;5111981;28;20088;-68
2023/02/12 04:10:30;;;;;;;55.10;29.33;;;;;;;-4.30;100.00;93972.72;5106321;28;20434;-68
2023/02/12 04:13:02;;;;;;;43.60;25.70;;;;;;;-4.31;100.00;93966.06;5111855;28;20040;-68
2023/02/12 04:15:51;;;;;;;35.67;22.52;;;;;;;-4.26;100.00;93970.81;5111495;27;20048;-69
2023/02/12 04:18:25;;;;;;;61.10;34.08;;;;;;;-4.19;100.00;93979.53;5110964;28;20044;-68
2023/02/12 04:21:00;;;;;;;57.75;33.83;;;;;;;-4.16;100.00;93980.13;5111235;28;20109;-68
2023/02/12 04:23:44;;;;;;;45.88;26.73;;;;;;;-4.18;100.00;93976.94;5111683;28;20044;-69
2023/02/12 04:26:20;;;;;;;49.13;28.08;;;;;;;-4.20;100.00;93962.88;5111240;28;20051;-69
2023/02/12 04:28:57;;;;;;;54.42;30.38;;;;;;;-4.22;100.00;93967.19;5111058;28;20495;-68
2023/02/12 04:31:30;;;;;;;63.25;32.33;;;;;;;-4.18;100.00;93969.41;5111243;28;20438;-68
2023/02/12 04:34:07;;;;;;;46.08;27.63;;;;;;;-4.15;100.00;93968.41;5106517;28;20047;-69
2023/02/12 04:36:38;;;;;;;47.78;27.38;;;;;;;-4.06;100.00;93982.03;5107041;28;20100;-68
2023/02/12 04:39:10;;;;;;;61.40;35.20;;;;;;;-3.97;100.00;93975.59;5110252;27;20533;-68
2023/02/12 04:41:38;;;;;;;78.60;40.70;;;;;;;-4.00;100.00;93976.59;5111145;28;20054;-68
2023/02/12 04:44:16;;;;;;;78.50;42.17;;;;;;;-4.12;100.00;93980.72;5110832;28;20822;-69
2023/02/12 04:46:46;;;;;;;45.88;25.90;;;;;;;-4.14;100.00;93992.56;5107737;28;20085;-70
2023/02/12 04:49:19;;;;;;;52.47;30.60;;;;;;;-4.06;100.00;93989.56;5109225;28;20448;-69
2023/02/12 04:51:52;;;;;;;47.65;29.25;;;;;;;-4.02;100.00;93975.91;5102058;28;20047;-69
2023/02/12 04:54:20;;;;;;;49.33;29.63;;;;;;;-3.90;100.00;93990.16;5105910;28;20054;-69
2023/02/12 04:56:48;;;;;;;70.80;40.50;;;;;;;-3.85;100.00;93989.84;5102410;28;20040;-69
2023/02/12 04:59:15;;;;;;;61.38;37.33;;;;;;;-3.81;100.00;93993.75;5101711;28;20060;-68
2023/02/12 05:01:42;;;;;;;70.78;41.83;;;;;;;-3.73;100.00;93998.28;5104141;28;20036;-69
2023/02/12 05:04:11;;;;;;;57.53;33.63;;;;;;;-3.73;100.00;93995.75;5099580;27;20058;-68
2023/02/12 05:06:40;;;;;;;61.22;33.92;;;;;;;-3.68;100.00;93997.94;5092168;28;20094;-68
2023/02/12 05:09:09;;;;;;;124.70;71.95;;;;;;;-3.82;100.00;93953.69;5093680;28;20496;-69
2023/02/12 05:11:36;;;;;;;53.05;33.45;;;;;;;-3.62;100.00;93993.34;5103377;28;20043;-69
2023/02/12 05:14:03;;;;;;;58.67;34.92;;;;;;;-3.57;100.00;94003.06;5096912;28;20503;-69
2023/02/12 05:16:30;;;;;;;85.45;46.17;;;;;;;-3.50;100.00;93995.91;5090294;28;20113;-69
2023/02/12 05:18:56;;;;;;;52.08;31.55;;;;;;;-3.57;100.00;93992.22;5093111;28;20085;-69
2023/02/12 05:21:23;;;;;;;66.85;35.03;;;;;;;-3.67;100.00;94009.59;5090051;28;20055;-69
2023/02/12 05:23:51;;;;;;;43.08;25.55;;;;;;;-4.06;100.00;94004.63;5089813;28;20090;-69
2023/02/12 05:26:20;;;;;;;47.25;26.27;;;;;;;-3.87;100.00;93991.66;5090496;28;20052;-69
2023/02/12 05:28:47;;;;;;;41.38;25.77;;;;;;;-3.83;100.00;94014.84;5106475;28;20047;-69
2023/02/12 05:31:16;;;;;;;67.80;40.92;;;;;;;-3.81;100.00;94021.38;5097862;28;20322;-69
2023/02/12 05:33:44;;;;;;;61.92;33.97;;;;;;;-3.74;100.00;94019.28;5090332;28;20123;-69
2023/02/12 05:36:13;;;;;;;47.70;29.63;;;;;;;-3.75;100.00;94020.19;5089678;28;20040;-69
2023/02/12 05:38:40;;;;;;;48.45;30.55;;;;;;;-3.76;100.00;94021.88;5089737;28;20048;-68
2023/02/12 05:41:11;;;;;;;52.03;32.08;;;;;;;-3.66;100.00;94032.09;5091587;28;20443;-69
2023/02/12 05:43:37;;;;;;;38.88;23.65;;;;;;;-3.54;100.00;94027.97;5092192;28;20089;-69
2023/02/12 05:46:06;;;;;;;41.03;25.77;;;;;;;-3.56;100.00;94024.75;5089430;28;20470;-69
2023/02/12 05:48:33;;;;;;;34.47;21.60;;;;;;;-3.38;100.00;94039.50;5089890;28;20097;-69
2023/02/12 05:51:04;;;;;;;38.90;24.40;;;;;;;-3.24;100.00;94039.34;5090289;28;20052;-69
2023/02/12 05:53:31;;;;;;;36.50;23.48;;;;;;;-3.11;100.00;94048.56;5097424;28;20043;-68
2023/02/12 05:56:12;;;;;;;28.00;17.83;;;;;;;-2.95;100.00;94040.78;5104570;28;20092;-68
2023/02/12 05:58:40;;;;;;;36.42;20.55;;;;;;;-2.85;100.00;94035.91;5110203;28;20458;-68
2023/02/12 06:01:11;;;;;;;29.17;19.27;;;;;;;-2.70;100.00;94041.56;5103366;28;20066;-68
2023/02/12 06:03:38;;;;;;;26.92;17.65;;;;;;;-2.62;100.00;94039.34;5100457;28;20096;-68
2023/02/12 06:06:05;;;;;;;28.52;18.45;;;;;;;-2.51;100.00;94032.75;5109559;28;20618;-69
2023/02/12 06:08:32;;;;;;;82.07;41.50;;;;;;;-2.53;100.00;94040.41;5110023;28;20039;-69
2023/02/12 06:11:01;;;;;;;53.47;27.95;;;;;;;-2.59;100.00;94039.09;5109391;28;20043;-69
2023/02/12 06:13:29;;;;;;;52.03;27.90;;;;;;;-2.57;100.00;94036.47;5109371;28;20406;-69
2023/02/12 06:15:56;;;;;;;42.47;23.73;;;;;;;-2.51;100.00;94043.59;5107491;28;20044;-69
2023/02/12 06:18:23;;;;;;;33.70;19.23;;;;;;;-2.48;100.00;94048.41;5089389;28;20051;-69
2023/02/12 06:20:49;;;;;;;41.88;21.80;;;;;;;-2.40;100.00;94047.06;5108153;28;20373;-69
2023/02/12 06:23:16;;;;;;;30.98;18.58;;;;;;;-2.38;100.00;94048.56;5109718;28;20047;-69
2023/02/12 06:25:43;;;;;;;40.63;22.58;;;;;;;-2.55;100.00;94019.56;5109649;28;20097;-69
2023/02/12 06:28:09;;;;;;;40.75;20.90;;;;;;;-2.46;100.00;94046.59;5104897;28;20055;-69
2023/02/12 06:30:37;;;;;;;30.98;18.42;;;;;;;-2.42;100.00;94047.16;5107098;28;20036;-69
2023/02/12 06:33:04;;;;;;;46.80;24.15;;;;;;;-2.50;100.00;94044.41;5108974;28;20051;-69
2023/02/12 06:35:31;;;;;;;31.23;18.60;;;;;;;-2.39;100.00;94052.00;5109226;28;20499;-69
2023/02/12 06:37:57;;;;;;;48.53;27.55;;;;;;;-2.33;100.00;94050.75;5109461;28;20093;-69
2023/02/12 06:40:24;;;;;;;51.20;28.70;;;;;;;-2.23;100.00;94048.38;5109417;28;20047;-69
2023/02/12 06:42:51;;;;;;;47.72;26.13;;;;;;;-2.09;100.00;94050.69;5111212;28;20092;-69
2023/02/12 06:45:17;;;;;;;45.50;25.63;;;;;;;-1.94;100.00;94050.50;5113002;28;20052;-69
2023/02/12 06:47:46;;;;;;;193.57;113.32;;;;;;;-1.84;100.00;94048.09;5113674;28;20051;-69
2023/02/12 06:50:13;;;;;;;53.97;33.88;;;;;;;-1.76;100.00;94044.09;5086838;28;20553;-69
2023/02/12 06:52:39;;;;;;;104.15;60.58;;;;;;;-1.68;100.00;94051.09;5113114;28;20043;-69
2023/02/12 06:55:07;;;;;;;56.13;34.42;;;;;;;-1.63;100.00;94043.19;5112999;28;20562;-69
2023/02/12 06:57:33;;;;;;;49.80;30.70;;;;;;;-1.55;100.00;94051.00;5113001;28;20540;-69
2023/02/12 07:00:00;;;;;;;45.60;26.98;;;;;;;-1.51;100.00;94052.38;5113240;28;20039;-69
2023/02/12 07:02:27;;;;;;;52.45;28.70;;;;;;;-1.51;100.00;94049.84;5110324;28;20052;-69
2023/02/12 07:04:55;;;;;;;53.25;28.17;;;;;;;-1.49;100.00;94054.75;5113062;28;20043;-69
2023/02/12 07:07:22;;;;;;;38.50;24.88;;;;;;;-1.48;100.00;94049.59;5112950;28;20044;-69
2023/02/12 07:09:49;;;;;;;43.55;28.42;;;;;;;-1.45;100.00;94046.06;5112968;28;20039;-69
2023/02/12 07:12:15;;;;;;;42.50;27.30;;;;;;;-1.45;100.00;94042.75;5112554;28;20846;-69
2023/02/12 07:14:42;;;;;;;38.08;26.88;;;;;;;-1.43;100.00;94036.66;5113159;28;20047;-69
2023/02/12 07:17:09;;;;;;;55.33;31.25;;;;;;;-1.37;100.00;94038.72;5100270;28;20117;-69
2023/02/12 07:19:36;;;;;;;338.67;167.52;;;;;;;-1.31;100.00;94039.19;5101690;28;20072;-69
2023/02/12 07:22:04;;;;;;;117.10;60.45;;;;;;;-1.25;100.00;94041.25;5112927;28;20044;-69
2023/02/12 07:24:31;;;;;;;76.43;40.30;;;;;;;-1.31;100.00;94042.50;5113111;28;20055;-69
2023/02/12 07:26:58;;;;;;;53.78;31.08;;;;;;;-1.28;100.00;94042.28;5112219;28;20052;-69
2023/02/12 07:29:24;;;;;;;59.17;34.33;;;;;;;-1.22;100.00;94044.31;5113084;28;20105;-69
2023/02/12 07:31:51;;;;;;;59.15;35.08;;;;;;;-1.22;100.00;94031.72;5112243;28;20677;-69
2023/02/12 07:34:18;;;;;;;63.65;37.38;;;;;;;-1.18;100.00;94032.28;5113093;28;20043;-69
2023/02/12 07:36:44;;;;;;;58.13;35.55;;;;;;;-1.10;100.00;94034.22;5112237;27;20457;-69
2023/02/12 07:39:13;;;;;;;60.78;35.85;;;;;;;-1.09;100.00;94026.53;5113027;28;20047;-69
2023/02/12 07:41:39;;;;;;;62.40;35.72;;;;;;;-1.02;100.00;94031.91;5112976;28;20377;-69
2023/02/12 07:44:09;;;;;;;54.78;33.92;;;;;;;-0.98;100.00;94035.78;5112141;28;20043;-69
2023/02/12 07:46:37;;;;;;;64.43;36.72;;;;;;;-0.93;100.00;94037.16;5112537;28;20051;-69
2023/02/12 07:49:06;;;;;;;66.28;39.42;;;;;;;-0.88;100.00;94035.09;5112126;28;20040;-69
2023/02/12 07:51:33;;;;;;;63.47;39.30;;;;;;;-0.84;100.00;94042.28;5112437;28;20092;-69
2023/02/12 07:54:00;;;;;;;49.75;30.33;;;;;;;-0.80;100.00;94037.81;5112263;28;20048;-69
2023/02/12 07:56:31;;;;;;;41.05;26.60;;;;;;;-0.72;100.00;94042.25;5111665;28;20050;-69
2023/02/12 07:59:06;;;;;;;50.03;32.15;;;;;;;-0.72;100.00;94039.75;5105883;28;20068;-67
2023/02/12 08:01:34;;;;;;;74.70;43.60;;;;;;;-0.69;100.00;94044.56;5101211;28;20044;-67
2023/02/12 08:04:06;;;;;;;97.10;49.72;;;;;;;-0.69;100.00;94045.34;5110413;28;20054;-67
2023/02/12 08:06:39;;;;;;;159.65;78.28;;;;;;;-0.85;100.00;94043.22;5105920;28;20775;-67
2023/02/12 08:09:08;;;;;;;276.35;119.95;;;;;;;-1.06;100.00;94020.47;5112563;28;20118;-67
2023/02/12 08:11:37;;;;;;;137.63;65.28;;;;;;;-0.98;100.00;94048.41;5110997;28;20046;-67
2023/02/12 08:14:05;;;;;;;58.83;33.67;;;;;;;-1.15;100.00;94052.22;5112311;28;20453;-67
2023/02/12 08:16:36;;;;;;;95.80;47.13;;;;;;;-1.19;100.00;94050.84;5104639;28;20102;-67
2023/02/12 08:19:03;;;;;;;106.60;52.33;;;;;;;-1.09;100.00;94061.03;5105229;28;20496;-67
2023/02/12 08:21:29;;;;;;;75.40;41.45;;;;;;;-1.18;100.00;94049.13;5111886;28;20092;-67
2023/02/12 08:23:58;;;;;;;66.18;35.83;;;;;;;-1.03;100.00;94069.88;5111565;28;20056;-67
2023/02/12 08:26:27;;;;;;;56.65;33.60;;;;;;;-0.96;100.00;94059.16;5111503;28;20331;-67
2023/02/12 08:28:58;;;;;;;47.25;29.30;;;;;;;-0.94;100.00;94056.53;5111692;28;20052;-67
2023/02/12 08:31:27;;;;;;;56.50;33.50;;;;;;;-0.88;100.00;94060.31;5111489;28;20039;-67
2023/02/12 08:33:54;;;;;;;54.95;32.75;;;;;;;-0.78;100.00;94061.22;5111232;27;20495;-67
2023/02/12 08:36:22;;;;;;;48.28;31.42;;;;;;;-0.71;100.00;94062.34;5111377;28;20092;-67
2023/02/12 08:38:50;;;;;;;115.75;67.93;;;;;;;-0.69;100.00;94075.63;5084373;28;20549;-67
2023/02/12 08:41:18;;;;;;;147.75;79.60;;;;;;;-0.67;100.00;94078.03;5111320;28;20511;-67
2023/02/12 08:43:45;;;;;;;149.18;83.35;;;;;;;-0.66;100.00;94074.59;5111577;28;20388;-67
2023/02/12 08:46:16;;;;;;;133.98;77.85;;;;;;;-0.64;100.00;94082.03;5111039;28;20040;-67
2023/02/12 08:48:43;;;;;;;133.85;77.57;;;;;;;-0.68;100.00;94084.78;5111034;28;20092;-67
2023/02/12 08:51:12;;;;;;;99.88;64.35;;;;;;;-0.63;100.00;94088.69;5111196;28;20040;-67
2023/02/12 08:53:41;;;;;;;106.47;64.20;;;;;;;-0.64;100.00;94092.94;5109428;28;20047;-67
2023/02/12 08:56:09;;;;;;;116.80;68.65;;;;;;;-0.62;100.00;94083.53;5104683;28;20056;-69
2023/02/12 08:58:36;;;;;;;107.43;64.38;;;;;;;-0.60;100.00;94094.28;5110718;28;20047;-69
2023/02/12 09:01:04;;;;;;;117.85;65.40;;;;;;;-0.55;100.00;94096.47;5084663;28;20047;-69
2023/02/12 09:03:32;;;;;;;119.68;69.20;;;;;;;-0.53;100.00;94097.16;5099152;28;20044;-69
2023/02/12 09:06:01;;;;;;;255.93;135.32;;;;;;;-0.50;100.00;94101.97;5110474;28;20449;-69
2023/02/12 09:08:28;;;;;;;152.75;87.80;;;;;;;-0.48;100.00;94102.63;5110426;28;20052;-69
2023/02/12 09:10:55;;;;;;;122.55;69.28;;;;;;;-0.43;100.00;94104.78;5110462;28;20096;-69
2023/02/12 09:13:22;;;;;;;105.57;60.60;;;;;;;-0.42;100.00;94109.72;5111014;28;20039;-69
2023/02/12 09:15:48;;;;;;;111.93;62.80;;;;;;;-0.44;100.00;94110.78;5109460;28;20047;-69
2023/02/12 09:18:15;;;;;;;119.38;64.55;;;;;;;-0.39;100.00;94112.94;5091708;28;20070;-69
2023/02/12 09:20:45;;;;;;;96.15;54.78;;;;;;;-0.36;100.00;94118.56;5110634;28;20092;-69
2023/02/12 09:23:14;;;;;;;79.22;51.05;;;;;;;-0.35;100.00;94121.88;5110330;28;20043;-69
2023/02/12 09:25:41;;;;;;;78.93;46.63;;;;;;;-0.35;100.00;94127.72;5110594;28;20450;-69
2023/02/12 09:28:09;;;;;;;117.10;63.60;;;;;;;-0.43;100.00;94107.31;5110432;28;20100;-69
2023/02/12 09:30:37;;;;;;;165.88;80.38;;;;;;;-0.51;100.00;94132.38;5110582;28;20048;-69
2023/02/12 09:33:04;;;;;;;176.75;84.88;;;;;;;-0.66;100.00;94131.84;5110574;28;20047;-69
2023/02/12 09:35:31;;;;;;;126.78;57.63;;;;;;;-0.81;100.00;94130.38;5109678;28;20496;-69
2023/02/12 09:37:59;;;;;;;252.02;132.88;;;;;;;-0.89;100.00;94135.19;5110568;28;20093;-69
2023/02/12 09:40:33;;;;;;;69.07;38.38;;;;;;;-0.92;100.00;94134.59;5109922;28;20488;-69
2023/02/12 09:43:12;;;;;;;396.67;267.02;;;;;;;-0.84;100.00;94132.28;5109948;28;20484;-69
2023/02/12 09:45:43;;;;;;;63.05;39.75;;;;;;;-0.85;100.00;94133.22;5110137;28;20503;-69
2023/02/12 09:48:28;;;;;;;388.77;256.52;;;;;;;-0.83;100.00;94137.22;5109894;28;20051;-69
2023/02/12 09:50:57;;;;;;;67.53;40.33;;;;;;;-1.06;100.00;94128.09;5110378;28;20100;-69
2023/02/12 09:53:27;;;;;;;54.22;32.75;;;;;;;-1.16;100.00;94127.97;5083334;28;20544;-69
2023/02/12 09:55:55;;;;;;;49.20;29.77;;;;;;;-1.14;100.00;94132.00;5110053;28;20097;-69
2023/02/12 09:58:31;;;;;;;87.15;43.13;;;;;;;-1.17;100.00;94136.47;5110300;28;20047;-69
2023/02/12 10:00:57;;;;;;;;;;;;;;;-1.23;100.00;94130.16;5110566;28;20051;-69
2023/02/12 10:03:27;;;;;;;99.95;50.25;;;;;;;-1.23;100.00;94130.16;5107741;28;19965;-69
2023/02/12 10:05:58;;;;;;;43.88;27.75;;;;;;;-1.33;100.00;94125.00;5109328;28;20095;-69
2023/02/12 10:08:53;;;;;;;43.55;26.88;;;;;;;-1.49;100.00;94126.13;5109939;28;20108;-69
2023/02/12 10:11:30;;;;;;;45.55;30.23;;;;;;;-1.38;100.00;94124.53;5084968;28;20420;-69
2023/02/12 10:14:10;;;;;;;38.78;24.48;;;;;;;-1.48;100.00;94131.97;5108917;28;20100;-69
2023/02/12 10:16:48;;;;;;;36.65;23.27;;;;;;;-1.44;100.00;94120.72;5101218;28;20098;-69
2023/02/12 10:19:27;;;;;;;60.95;32.67;;;;;;;-1.42;100.00;94130.72;5095153;28;20047;-69
2023/02/12 10:22:05;;;;;;;59.47;33.65;;;;;;;-1.44;100.00;94130.81;5109304;27;20066;-68
2023/02/12 10:24:58;;;;;;;33.90;23.27;;;;;;;-1.48;100.00;94139.53;5109190;28;20093;-68
2023/02/12 10:27:36;;;;;;;41.42;27.63;;;;;;;-1.40;100.00;94137.25;5105750;28;20047;-68
2023/02/12 10:30:13;;;;;;;119.10;61.65;;;;;;;-1.40;100.00;94124.63;5109493;28;20458;-68
2023/02/12 10:32:43;;;;;;;46.40;30.63;;;;;;;-1.21;100.00;94130.81;5109709;28;20062;-68
2023/02/12 10:35:14;;;;;;;39.75;25.60;;;;;;;-1.11;100.00;94129.22;5109359;28;20044;-68
2023/02/12 10:37:48;;;;;;;34.65;23.92;;;;;;;-1.06;100.00;94130.59;5109706;28;20043;-68
2023/02/12 10:40:23;;;;;;;39.17;24.15;;;;;;;-1.09;100.00;94137.50;5109290;28;20047;-68
2023/02/12 10:42:51;;;;;;;45.60;28.50;;;;;;;-0.91;100.00;94133.69;5108966;28;20043;-68
2023/02/12 10:45:20;;;;;;;34.45;21.50;;;;;;;-1.06;100.00;94118.00;5109446;28;20396;-68
2023/02/12 10:47:52;;;;;;;45.72;27.27;;;;;;;-0.87;100.00;94127.50;5109477;28;20117;-68
2023/02/12 10:50:28;;;;;;;39.10;27.35;;;;;;;-0.73;100.00;94132.31;5109474;28;20048;-68
2023/02/12 10:53:02;;;;;;;49.00;29.90;;;;;;;-0.50;100.00;94128.91;5108990;28;20051;-69
2023/02/12 10:55:32;;;;;;;52.13;33.25;;;;;;;-0.43;100.00;94127.50;5109099;28;20073;-69
2023/02/12 10:58:00;;;;;;;41.03;24.88;;;;;;;-0.52;100.00;94131.56;5109090;28;20046;-69
2023/02/12 11:00:30;;;;;;;59.90;35.78;;;;;;;-0.37;100.00;94133.81;5109226;28;20044;-69
2023/02/12 11:03:04;;;;;;;42.60;26.40;;;;;;;-0.16;100.00;94127.09;5107118;28;20109;-69
2023/02/12 11:05:33;;;;;;;27.98;19.40;;;;;;;-0.18;100.00;94123.88;5108811;28;20084;-69
2023/02/12 11:08:00;;;;;;;32.42;21.48;;;;;;;-0.11;100.00;94129.25;5109359;28;20081;-69
2023/02/12 11:10:31;;;;;;;46.47;31.10;;;;;;;-0.16;100.00;94132.16;5109046;28;20047;-69
2023/02/12 11:12:59;;;;;;;31.77;21.42;;;;;;;-0.21;100.00;94126.66;5109051;28;20088;-69
2023/02/12 11:15:30;;;;;;;29.15;20.85;;;;;;;-0.27;100.00;94115.28;5109053;28;20052;-69
2023/02/12 11:18:01;;;;;;;28.80;19.63;;;;;;;-0.11;100.00;94128.44;5089507;28;20051;-69
2023/02/12 11:20:29;;;;;;;141.88;65.93;;;;;;;0.08;100.00;94122.72;5104936;28;20823;-69
2023/02/12 11:22:58;;;;;;;81.03;41.55;;;;;;;0.16;100.00;94107.75;5109438;28;20120;-69
2023/02/12 11:25:27;;;;;;;77.57;40.55;;;;;;;0.32;100.00;94130.06;5109087;28;20419;-69